sensor_id;sensor_type;location;lat;lon;timestamp;P1;durP1;ratioP1;P2;durP2;ratioP2
69744;SDS011;57015;50.120;-5.168;2023-12-04T00:02:24;8.50;;;1.20;;
69744;SDS011;57015;50.120;-5.168;2023-12-04T00:04:49;4.80;;;0.90;;
69744;SDS011;57015;50.120;-5.168;2023-12-04T00:07:14;7.00;;;1.30;;
69744;SDS011;57015;50.120;-5.168;2023-12-04T00:09:40;3.58;;;0.65;;
69744;SDS011;57015;50.120;-5.168;2023-12-04T00:12:05;7.53;;;1.53;;
69744;SDS011;57015;50.120;-5.168;2023-12-04T00:14:31;10.43;;;1.93;;
69744;SDS011;57015;50.120;-5.168;2023-12-04T00:16:56;6.23;;;1.60;;
69744;SDS011;57015;50.120;-5.168;2023-12-04T00:19:22;8.97;;;1.40;;
69744;SDS011;57015;50.120;-5.168;2023-12-04T00:21:47;5.43;;;1.43;;
69744;SDS011;57015;50.120;-5.168;2023-12-04T00:24:12;5.28;;;1.10;;
69744;SDS011;57015;50.120;-5.168;2023-12-04T00:26:38;2.92;;;0.85;;
69744;SDS011;57015;50.120;-5.168;2023-12-04T00:29:03;4.00;;;0.90;;
69744;SDS011;57015;50.120;-5.168;2023-12-04T00:31:28;2.53;;;0.83;;
69744;SDS011;57015;50.120;-5.168;2023-12-04T00:33:54;5.10;;;0.97;;
69744;SDS011;57015;50.120;-5.168;2023-12-04T00:36:19;29.40;;;1.23;;
69744;SDS011;57015;50.120;-5.168;2023-12-04T00:38:44;15.67;;;1.30;;
69744;SDS011;57015;50.120;-5.168;2023-12-04T00:41:10;4.22;;;0.95;;
69744;SDS011;57015;50.120;-5.168;2023-12-04T00:43:36;3.90;;;0.93;;
69744;SDS011;57015;50.120;-5.168;2023-12-04T00:46:01;18.80;;;1.27;;
69744;SDS011;57015;50.120;-5.168;2023-12-04T00:48:26;8.87;;;1.23;;
69744;SDS011;57015;50.120;-5.168;2023-12-04T00:50:52;10.77;;;0.85;;
69744;SDS011;57015;50.120;-5.168;2023-12-04T00:53:17;15.07;;;1.47;;
69744;SDS011;57015;50.120;-5.168;2023-12-04T00:55:42;9.50;;;0.50;;
69744;SDS011;57015;50.120;-5.168;2023-12-04T00:58:08;6.73;;;0.63;;
69744;SDS011;57015;50.120;-5.168;2023-12-04T01:00:33;10.20;;;1.37;;
69744;SDS011;57015;50.120;-5.168;2023-12-04T01:02:58;5.20;;;0.60;;
69744;SDS011;57015;50.120;-5.168;2023-12-04T01:05:24;10.87;;;0.73;;
69744;SDS011;57015;50.120;-5.168;2023-12-04T01:07:49;15.77;;;0.80;;
69744;SDS011;57015;50.120;-5.168;2023-12-04T01:10:15;14.67;;;1.50;;
69744;SDS011;57015;50.120;-5.168;2023-12-04T01:12:40;5.13;;;0.80;;
69744;SDS011;57015;50.120;-5.168;2023-12-04T01:15:06;6.90;;;0.70;;
69744;SDS011;57015;50.120;-5.168;2023-12-04T01:17:31;6.88;;;0.75;;
69744;SDS011;57015;50.120;-5.168;2023-12-04T01:19:57;2.10;;;0.40;;
69744;SDS011;57015;50.120;-5.168;2023-12-04T01:22:22;1.83;;;0.40;;
69744;SDS011;57015;50.120;-5.168;2023-12-04T01:24:48;14.70;;;0.90;;
69744;SDS011;57015;50.120;-5.168;2023-12-04T01:27:13;4.18;;;0.40;;
69744;SDS011;57015;50.120;-5.168;2023-12-04T01:29:38;12.63;;;0.40;;
69744;SDS011;57015;50.120;-5.168;2023-12-04T01:32:04;2.50;;;0.50;;
69744;SDS011;57015;50.120;-5.168;2023-12-04T01:34:29;7.17;;;0.83;;
69744;SDS011;57015;50.120;-5.168;2023-12-04T01:36:55;2.90;;;0.67;;
69744;SDS011;57015;50.120;-5.168;2023-12-04T01:39:20;2.80;;;0.82;;
69744;SDS011;57015;50.120;-5.168;2023-12-04T01:41:45;5.47;;;0.50;;
69744;SDS011;57015;50.120;-5.168;2023-12-04T01:44:11;1.77;;;0.30;;
69744;SDS011;57015;50.120;-5.168;2023-12-04T01:46:36;4.13;;;0.63;;
69744;SDS011;57015;50.120;-5.168;2023-12-04T01:49:02;4.13;;;0.80;;
69744;SDS011;57015;50.120;-5.168;2023-12-04T01:51:28;2.15;;;0.20;;
69744;SDS011;57015;50.120;-5.168;2023-12-04T01:53:53;4.80;;;0.30;;
69744;SDS011;57015;50.120;-5.168;2023-12-04T01:56:21;3.05;;;0.40;;
69744;SDS011;57015;50.120;-5.168;2023-12-04T01:58:46;4.17;;;0.40;;
69744;SDS011;57015;50.120;-5.168;2023-12-04T02:01:12;3.45;;;0.30;;
69744;SDS011;57015;50.120;-5.168;2023-12-04T02:03:37;3.87;;;0.30;;
69744;SDS011;57015;50.120;-5.168;2023-12-04T02:06:02;2.33;;;0.40;;
69744;SDS011;57015;50.120;-5.168;2023-12-04T02:08:30;1.23;;;0.30;;
69744;SDS011;57015;50.120;-5.168;2023-12-04T02:10:55;3.00;;;0.50;;
69744;SDS011;57015;50.120;-5.168;2023-12-04T02:13:21;2.10;;;0.33;;
69744;SDS011;57015;50.120;-5.168;2023-12-04T02:15:46;4.73;;;0.27;;
69744;SDS011;57015;50.120;-5.168;2023-12-04T02:18:14;4.15;;;0.30;;
69744;SDS011;57015;50.120;-5.168;2023-12-04T02:20:40;4.25;;;0.35;;
69744;SDS011;57015;50.120;-5.168;2023-12-04T02:23:06;2.07;;;0.30;;
69744;SDS011;57015;50.120;-5.168;2023-12-04T02:25:31;4.23;;;0.30;;
69744;SDS011;57015;50.120;-5.168;2023-12-04T02:27:58;3.67;;;0.50;;
69744;SDS011;57015;50.120;-5.168;2023-12-04T02:30:25;3.58;;;0.40;;
69744;SDS011;57015;50.120;-5.168;2023-12-04T02:32:51;5.60;;;0.95;;
69744;SDS011;57015;50.120;-5.168;2023-12-04T02:35:20;2.83;;;0.30;;
69744;SDS011;57015;50.120;-5.168;2023-12-04T02:37:47;2.78;;;0.20;;
69744;SDS011;57015;50.120;-5.168;2023-12-04T02:40:14;1.38;;;0.50;;
69744;SDS011;57015;50.120;-5.168;2023-12-04T02:42:39;2.58;;;0.20;;
69744;SDS011;57015;50.120;-5.168;2023-12-04T02:45:05;2.70;;;0.32;;
69744;SDS011;57015;50.120;-5.168;2023-12-04T02:47:31;1.70;;;0.43;;
69744;SDS011;57015;50.120;-5.168;2023-12-04T02:49:56;2.47;;;0.43;;
69744;SDS011;57015;50.120;-5.168;2023-12-04T02:52:22;2.80;;;0.30;;
69744;SDS011;57015;50.120;-5.168;2023-12-04T02:54:47;4.50;;;0.83;;
69744;SDS011;57015;50.120;-5.168;2023-12-04T02:57:12;1.27;;;0.20;;
69744;SDS011;57015;50.120;-5.168;2023-12-04T02:59:38;1.70;;;0.47;;
69744;SDS011;57015;50.120;-5.168;2023-12-04T03:02:03;4.10;;;0.40;;
69744;SDS011;57015;50.120;-5.168;2023-12-04T03:04:30;4.07;;;0.30;;
69744;SDS011;57015;50.120;-5.168;2023-12-04T03:06:56;3.17;;;0.28;;
69744;SDS011;57015;50.120;-5.168;2023-12-04T03:09:21;3.77;;;0.37;;
69744;SDS011;57015;50.120;-5.168;2023-12-04T03:11:47;2.00;;;0.43;;
69744;SDS011;57015;50.120;-5.168;2023-12-04T03:14:12;2.10;;;0.20;;
69744;SDS011;57015;50.120;-5.168;2023-12-04T03:16:37;2.73;;;0.40;;
69744;SDS011;57015;50.120;-5.168;2023-12-04T03:19:03;3.53;;;0.50;;
69744;SDS011;57015;50.120;-5.168;2023-12-04T03:21:28;3.83;;;0.33;;
69744;SDS011;57015;50.120;-5.168;2023-12-04T03:23:54;2.13;;;0.20;;
69744;SDS011;57015;50.120;-5.168;2023-12-04T03:26:19;4.93;;;0.40;;
69744;SDS011;57015;50.120;-5.168;2023-12-04T03:28:45;1.93;;;0.30;;
69744;SDS011;57015;50.120;-5.168;2023-12-04T03:31:10;5.70;;;0.47;;
69744;SDS011;57015;50.120;-5.168;2023-12-04T03:33:35;5.33;;;0.70;;
69744;SDS011;57015;50.120;-5.168;2023-12-04T03:36:01;2.53;;;0.23;;
69744;SDS011;57015;50.120;-5.168;2023-12-04T03:38:26;3.38;;;0.38;;
69744;SDS011;57015;50.120;-5.168;2023-12-04T03:40:52;1.57;;;0.33;;
69744;SDS011;57015;50.120;-5.168;2023-12-04T03:43:17;3.57;;;0.43;;
69744;SDS011;57015;50.120;-5.168;2023-12-04T03:45:42;5.07;;;0.60;;
69744;SDS011;57015;50.120;-5.168;2023-12-04T03:48:08;7.30;;;0.60;;
69744;SDS011;57015;50.120;-5.168;2023-12-04T03:50:33;1.83;;;0.30;;
69744;SDS011;57015;50.120;-5.168;2023-12-04T03:52:58;4.32;;;0.40;;
69744;SDS011;57015;50.120;-5.168;2023-12-04T03:55:24;1.93;;;0.50;;
69744;SDS011;57015;50.120;-5.168;2023-12-04T03:57:49;5.43;;;0.57;;
69744;SDS011;57015;50.120;-5.168;2023-12-04T04:00:15;2.07;;;0.80;;
69744;SDS011;57015;50.120;-5.168;2023-12-04T04:02:42;1.20;;;0.35;;
69744;SDS011;57015;50.120;-5.168;2023-12-04T04:05:08;2.33;;;0.30;;
69744;SDS011;57015;50.120;-5.168;2023-12-04T04:07:33;3.73;;;0.40;;
69744;SDS011;57015;50.120;-5.168;2023-12-04T04:09:58;1.65;;;0.30;;
69744;SDS011;57015;50.120;-5.168;2023-12-04T04:12:24;4.22;;;0.40;;
69744;SDS011;57015;50.120;-5.168;2023-12-04T04:14:49;4.47;;;0.40;;
69744;SDS011;57015;50.120;-5.168;2023-12-04T04:17:14;2.70;;;0.43;;
69744;SDS011;57015;50.120;-5.168;2023-12-04T04:19:40;4.03;;;0.50;;
69744;SDS011;57015;50.120;-5.168;2023-12-04T04:22:05;4.95;;;0.25;;
69744;SDS011;57015;50.120;-5.168;2023-12-04T04:24:31;3.27;;;0.20;;
69744;SDS011;57015;50.120;-5.168;2023-12-04T04:26:56;5.30;;;0.40;;
69744;SDS011;57015;50.120;-5.168;2023-12-04T04:29:22;2.13;;;0.30;;
69744;SDS011;57015;50.120;-5.168;2023-12-04T04:31:47;1.67;;;0.20;;
69744;SDS011;57015;50.120;-5.168;2023-12-04T04:34:12;2.10;;;0.20;;
69744;SDS011;57015;50.120;-5.168;2023-12-04T04:36:38;0.77;;;0.20;;
69744;SDS011;57015;50.120;-5.168;2023-12-04T04:39:03;1.00;;;0.15;;
69744;SDS011;57015;50.120;-5.168;2023-12-04T04:41:29;0.73;;;0.20;;
69744;SDS011;57015;50.120;-5.168;2023-12-04T04:43:55;0.75;;;0.20;;
69744;SDS011;57015;50.120;-5.168;2023-12-04T04:46:20;0.68;;;0.20;;
69744;SDS011;57015;50.120;-5.168;2023-12-04T04:48:45;1.43;;;0.10;;
69744;SDS011;57015;50.120;-5.168;2023-12-04T04:51:11;2.63;;;0.30;;
69744;SDS011;57015;50.120;-5.168;2023-12-04T04:53:36;3.30;;;0.20;;
69744;SDS011;57015;50.120;-5.168;2023-12-04T04:56:01;3.70;;;0.30;;
69744;SDS011;57015;50.120;-5.168;2023-12-04T04:58:27;2.63;;;0.20;;
69744;SDS011;57015;50.120;-5.168;2023-12-04T05:00:52;2.30;;;0.20;;
69744;SDS011;57015;50.120;-5.168;2023-12-04T05:03:18;1.40;;;0.30;;
69744;SDS011;57015;50.120;-5.168;2023-12-04T05:05:43;3.17;;;0.20;;
69744;SDS011;57015;50.120;-5.168;2023-12-04T05:08:08;1.57;;;0.30;;
69744;SDS011;57015;50.120;-5.168;2023-12-04T05:10:34;3.73;;;0.30;;
69744;SDS011;57015;50.120;-5.168;2023-12-04T05:12:59;2.87;;;0.30;;
69744;SDS011;57015;50.120;-5.168;2023-12-04T05:15:24;1.17;;;0.30;;
69744;SDS011;57015;50.120;-5.168;2023-12-04T05:17:50;3.78;;;0.73;;
69744;SDS011;57015;50.120;-5.168;2023-12-04T05:20:16;3.83;;;0.40;;
69744;SDS011;57015;50.120;-5.168;2023-12-04T05:22:41;1.43;;;0.40;;
69744;SDS011;57015;50.120;-5.168;2023-12-04T05:25:07;1.30;;;0.20;;
69744;SDS011;57015;50.120;-5.168;2023-12-04T05:27:32;3.63;;;0.23;;
69744;SDS011;57015;50.120;-5.168;2023-12-04T05:29:58;4.37;;;0.27;;
69744;SDS011;57015;50.120;-5.168;2023-12-04T05:32:23;1.80;;;0.20;;
69744;SDS011;57015;50.120;-5.168;2023-12-04T05:34:48;1.37;;;0.20;;
69744;SDS011;57015;50.120;-5.168;2023-12-04T05:37:14;1.93;;;0.30;;
69744;SDS011;57015;50.120;-5.168;2023-12-04T05:39:39;2.95;;;0.28;;
69744;SDS011;57015;50.120;-5.168;2023-12-04T05:42:04;2.60;;;0.28;;
69744;SDS011;57015;50.120;-5.168;2023-12-04T05:44:30;3.90;;;0.40;;
69744;SDS011;57015;50.120;-5.168;2023-12-04T05:46:56;3.25;;;0.20;;
69744;SDS011;57015;50.120;-5.168;2023-12-04T05:49:21;2.60;;;0.30;;
69744;SDS011;57015;50.120;-5.168;2023-12-04T05:51:47;6.77;;;0.37;;
69744;SDS011;57015;50.120;-5.168;2023-12-04T05:54:12;1.43;;;0.10;;
69744;SDS011;57015;50.120;-5.168;2023-12-04T05:56:38;1.43;;;0.17;;
69744;SDS011;57015;50.120;-5.168;2023-12-04T05:59:03;2.87;;;0.30;;
69744;SDS011;57015;50.120;-5.168;2023-12-04T06:01:29;2.95;;;0.17;;
69744;SDS011;57015;50.120;-5.168;2023-12-04T06:03:54;2.40;;;0.10;;
69744;SDS011;57015;50.120;-5.168;2023-12-04T06:06:19;4.20;;;0.20;;
69744;SDS011;57015;50.120;-5.168;2023-12-04T06:08:45;5.03;;;0.63;;
69744;SDS011;57015;50.120;-5.168;2023-12-04T06:11:10;3.87;;;0.40;;
69744;SDS011;57015;50.120;-5.168;2023-12-04T06:13:35;1.67;;;0.10;;
69744;SDS011;57015;50.120;-5.168;2023-12-04T06:16:01;1.55;;;0.30;;
69744;SDS011;57015;50.120;-5.168;2023-12-04T06:18:27;2.43;;;0.10;;
69744;SDS011;57015;50.120;-5.168;2023-12-04T06:20:52;0.90;;;0.20;;
69744;SDS011;57015;50.120;-5.168;2023-12-04T06:23:17;2.80;;;0.50;;
69744;SDS011;57015;50.120;-5.168;2023-12-04T06:25:44;1.83;;;0.30;;
69744;SDS011;57015;50.120;-5.168;2023-12-04T06:28:09;1.80;;;0.15;;
69744;SDS011;57015;50.120;-5.168;2023-12-04T06:30:35;1.27;;;0.40;;
69744;SDS011;57015;50.120;-5.168;2023-12-04T06:33:01;2.33;;;0.10;;
69744;SDS011;57015;50.120;-5.168;2023-12-04T06:35:26;1.15;;;0.10;;
69744;SDS011;57015;50.120;-5.168;2023-12-04T06:37:53;1.47;;;0.10;;
69744;SDS011;57015;50.120;-5.168;2023-12-04T06:40:19;2.45;;;0.20;;
69744;SDS011;57015;50.120;-5.168;2023-12-04T06:42:45;4.57;;;0.25;;
69744;SDS011;57015;50.120;-5.168;2023-12-04T06:45:11;1.57;;;0.30;;
69744;SDS011;57015;50.120;-5.168;2023-12-04T06:47:37;2.85;;;0.30;;
69744;SDS011;57015;50.120;-5.168;2023-12-04T06:50:05;5.13;;;0.97;;
69744;SDS011;57015;50.120;-5.168;2023-12-04T06:52:31;6.15;;;0.80;;
69744;SDS011;57015;50.120;-5.168;2023-12-04T06:54:56;10.90;;;0.57;;
69744;SDS011;57015;50.120;-5.168;2023-12-04T06:57:22;5.97;;;0.67;;
69744;SDS011;57015;50.120;-5.168;2023-12-04T06:59:47;7.23;;;1.47;;
69744;SDS011;57015;50.120;-5.168;2023-12-04T07:02:12;10.10;;;0.77;;
69744;SDS011;57015;50.120;-5.168;2023-12-04T07:04:38;9.32;;;0.88;;
69744;SDS011;57015;50.120;-5.168;2023-12-04T07:07:05;10.32;;;0.80;;
69744;SDS011;57015;50.120;-5.168;2023-12-04T07:09:31;5.80;;;0.73;;
69744;SDS011;57015;50.120;-5.168;2023-12-04T07:11:57;6.78;;;1.02;;
69744;SDS011;57015;50.120;-5.168;2023-12-04T07:14:23;9.88;;;0.80;;
69744;SDS011;57015;50.120;-5.168;2023-12-04T07:16:48;4.97;;;1.00;;
69744;SDS011;57015;50.120;-5.168;2023-12-04T07:19:14;9.10;;;0.80;;
69744;SDS011;57015;50.120;-5.168;2023-12-04T07:21:41;3.97;;;0.70;;
69744;SDS011;57015;50.120;-5.168;2023-12-04T07:24:06;6.20;;;0.53;;
69744;SDS011;57015;50.120;-5.168;2023-12-04T07:26:33;7.57;;;0.90;;
69744;SDS011;57015;50.120;-5.168;2023-12-04T07:28:58;6.13;;;0.67;;
69744;SDS011;57015;50.120;-5.168;2023-12-04T07:31:24;7.20;;;1.02;;
69744;SDS011;57015;50.120;-5.168;2023-12-04T07:33:52;8.77;;;1.55;;
69744;SDS011;57015;50.120;-5.168;2023-12-04T07:36:20;4.95;;;0.70;;
69744;SDS011;57015;50.120;-5.168;2023-12-04T07:38:45;6.43;;;0.53;;
69744;SDS011;57015;50.120;-5.168;2023-12-04T07:41:11;6.00;;;0.90;;
69744;SDS011;57015;50.120;-5.168;2023-12-04T07:43:37;4.60;;;0.90;;
69744;SDS011;57015;50.120;-5.168;2023-12-04T07:46:02;8.90;;;1.03;;
69744;SDS011;57015;50.120;-5.168;2023-12-04T07:48:28;5.63;;;0.90;;
69744;SDS011;57015;50.120;-5.168;2023-12-04T07:50:55;5.85;;;1.00;;
69744;SDS011;57015;50.120;-5.168;2023-12-04T07:53:20;4.83;;;0.70;;
69744;SDS011;57015;50.120;-5.168;2023-12-04T07:55:46;7.90;;;1.13;;
69744;SDS011;57015;50.120;-5.168;2023-12-04T07:58:13;8.05;;;1.20;;
69744;SDS011;57015;50.120;-5.168;2023-12-04T08:00:38;8.93;;;1.13;;
69744;SDS011;57015;50.120;-5.168;2023-12-04T08:03:04;3.22;;;0.60;;
69744;SDS011;57015;50.120;-5.168;2023-12-04T08:05:29;6.93;;;1.20;;
69744;SDS011;57015;50.120;-5.168;2023-12-04T08:07:56;6.78;;;0.95;;
69744;SDS011;57015;50.120;-5.168;2023-12-04T08:10:22;4.73;;;0.70;;
69744;SDS011;57015;50.120;-5.168;2023-12-04T08:12:48;4.03;;;0.40;;
69744;SDS011;57015;50.120;-5.168;2023-12-04T08:15:13;3.08;;;0.50;;
69744;SDS011;57015;50.120;-5.168;2023-12-04T08:17:38;3.30;;;0.25;;
69744;SDS011;57015;50.120;-5.168;2023-12-04T08:20:04;6.00;;;0.30;;
69744;SDS011;57015;50.120;-5.168;2023-12-04T08:22:31;4.93;;;0.32;;
69744;SDS011;57015;50.120;-5.168;2023-12-04T08:24:56;9.20;;;0.60;;
69744;SDS011;57015;50.120;-5.168;2023-12-04T08:27:23;3.22;;;0.45;;
69744;SDS011;57015;50.120;-5.168;2023-12-04T08:29:49;3.07;;;0.47;;
69744;SDS011;57015;50.120;-5.168;2023-12-04T08:32:14;7.32;;;0.77;;
69744;SDS011;57015;50.120;-5.168;2023-12-04T08:34:40;2.07;;;0.60;;
69744;SDS011;57015;50.120;-5.168;2023-12-04T08:37:05;7.37;;;0.57;;
69744;SDS011;57015;50.120;-5.168;2023-12-04T08:39:30;2.13;;;0.20;;
69744;SDS011;57015;50.120;-5.168;2023-12-04T08:41:56;3.17;;;1.17;;
69744;SDS011;57015;50.120;-5.168;2023-12-04T08:44:21;9.30;;;0.43;;
69744;SDS011;57015;50.120;-5.168;2023-12-04T08:46:47;5.22;;;0.75;;
69744;SDS011;57015;50.120;-5.168;2023-12-04T08:49:12;4.20;;;0.50;;
69744;SDS011;57015;50.120;-5.168;2023-12-04T08:51:37;5.80;;;0.40;;
69744;SDS011;57015;50.120;-5.168;2023-12-04T08:54:04;6.97;;;0.77;;
69744;SDS011;57015;50.120;-5.168;2023-12-04T08:56:29;2.97;;;1.00;;
69744;SDS011;57015;50.120;-5.168;2023-12-04T08:58:54;6.70;;;0.60;;
69744;SDS011;57015;50.120;-5.168;2023-12-04T09:01:20;7.13;;;1.10;;
69744;SDS011;57015;50.120;-5.168;2023-12-04T09:03:45;3.43;;;0.80;;
69744;SDS011;57015;50.120;-5.168;2023-12-04T09:06:11;2.63;;;0.30;;
69744;SDS011;57015;50.120;-5.168;2023-12-04T09:08:36;3.78;;;0.40;;
69744;SDS011;57015;50.120;-5.168;2023-12-04T09:11:02;7.13;;;0.33;;
69744;SDS011;57015;50.120;-5.168;2023-12-04T09:13:28;6.40;;;0.83;;
69744;SDS011;57015;50.120;-5.168;2023-12-04T09:15:55;7.93;;;0.57;;
69744;SDS011;57015;50.120;-5.168;2023-12-04T09:18:20;7.05;;;0.70;;
69744;SDS011;57015;50.120;-5.168;2023-12-04T09:20:45;8.73;;;1.13;;
69744;SDS011;57015;50.120;-5.168;2023-12-04T09:23:11;5.23;;;0.83;;
69744;SDS011;57015;50.120;-5.168;2023-12-04T09:25:37;7.40;;;0.47;;
69744;SDS011;57015;50.120;-5.168;2023-12-04T09:28:02;2.80;;;0.30;;
69744;SDS011;57015;50.120;-5.168;2023-12-04T09:30:28;3.03;;;0.37;;
69744;SDS011;57015;50.120;-5.168;2023-12-04T09:32:53;3.73;;;0.30;;
69744;SDS011;57015;50.120;-5.168;2023-12-04T09:35:19;7.07;;;0.77;;
69744;SDS011;57015;50.120;-5.168;2023-12-04T09:37:44;5.63;;;0.50;;
69744;SDS011;57015;50.120;-5.168;2023-12-04T09:40:11;6.03;;;0.70;;
69744;SDS011;57015;50.120;-5.168;2023-12-04T09:42:37;8.40;;;0.57;;
69744;SDS011;57015;50.120;-5.168;2023-12-04T09:45:04;4.75;;;0.88;;
69744;SDS011;57015;50.120;-5.168;2023-12-04T09:47:29;6.60;;;0.77;;
69744;SDS011;57015;50.120;-5.168;2023-12-04T09:49:55;8.50;;;0.67;;
69744;SDS011;57015;50.120;-5.168;2023-12-04T09:52:21;9.45;;;0.57;;
69744;SDS011;57015;50.120;-5.168;2023-12-04T09:54:46;5.77;;;0.60;;
69744;SDS011;57015;50.120;-5.168;2023-12-04T09:57:12;10.70;;;0.63;;
69744;SDS011;57015;50.120;-5.168;2023-12-04T09:59:38;7.63;;;1.02;;
69744;SDS011;57015;50.120;-5.168;2023-12-04T10:02:04;5.67;;;0.63;;
69744;SDS011;57015;50.120;-5.168;2023-12-04T10:04:30;4.68;;;0.68;;
69744;SDS011;57015;50.120;-5.168;2023-12-04T10:06:56;2.60;;;0.30;;
69744;SDS011;57015;50.120;-5.168;2023-12-04T10:09:21;6.33;;;1.00;;
69744;SDS011;57015;50.120;-5.168;2023-12-04T10:11:47;5.10;;;0.47;;
69744;SDS011;57015;50.120;-5.168;2023-12-04T10:14:19;6.10;;;0.65;;
69744;SDS011;57015;50.120;-5.168;2023-12-04T10:16:45;2.00;;;0.57;;
69744;SDS011;57015;50.120;-5.168;2023-12-04T10:19:18;2.88;;;0.40;;
69744;SDS011;57015;50.120;-5.168;2023-12-04T10:21:54;5.82;;;0.60;;
69744;SDS011;57015;50.120;-5.168;2023-12-04T10:24:31;2.17;;;0.30;;
69744;SDS011;57015;50.120;-5.168;2023-12-04T10:27:07;9.05;;;0.80;;
69744;SDS011;57015;50.120;-5.168;2023-12-04T10:29:43;6.55;;;0.52;;
69744;SDS011;57015;50.120;-5.168;2023-12-04T10:32:12;3.58;;;0.60;;
69744;SDS011;57015;50.120;-5.168;2023-12-04T10:34:40;4.13;;;0.77;;
69744;SDS011;57015;50.120;-5.168;2023-12-04T10:37:07;4.65;;;0.88;;
69744;SDS011;57015;50.120;-5.168;2023-12-04T10:39:47;8.85;;;0.80;;
69744;SDS011;57015;50.120;-5.168;2023-12-04T10:42:27;4.20;;;1.05;;
69744;SDS011;57015;50.120;-5.168;2023-12-04T10:44:56;10.27;;;1.43;;
69744;SDS011;57015;50.120;-5.168;2023-12-04T10:47:22;4.35;;;0.68;;
69744;SDS011;57015;50.120;-5.168;2023-12-04T10:49:51;8.68;;;0.60;;
69744;SDS011;57015;50.120;-5.168;2023-12-04T10:52:19;8.27;;;0.70;;
69744;SDS011;57015;50.120;-5.168;2023-12-04T10:54:48;7.90;;;0.57;;
69744;SDS011;57015;50.120;-5.168;2023-12-04T10:57:21;10.80;;;0.98;;
69744;SDS011;57015;50.120;-5.168;2023-12-04T10:59:50;5.07;;;0.68;;
69744;SDS011;57015;50.120;-5.168;2023-12-04T11:02:18;5.10;;;0.40;;
69744;SDS011;57015;50.120;-5.168;2023-12-04T11:04:47;7.00;;;0.32;;
69744;SDS011;57015;50.120;-5.168;2023-12-04T11:07:14;7.27;;;0.70;;
69744;SDS011;57015;50.120;-5.168;2023-12-04T11:09:40;3.17;;;0.77;;
69744;SDS011;57015;50.120;-5.168;2023-12-04T11:12:07;6.50;;;0.50;;
69744;SDS011;57015;50.120;-5.168;2023-12-04T11:14:39;7.38;;;0.95;;
69744;SDS011;57015;50.120;-5.168;2023-12-04T11:17:10;4.25;;;0.40;;
69744;SDS011;57015;50.120;-5.168;2023-12-04T11:19:52;3.70;;;0.60;;
69744;SDS011;57015;50.120;-5.168;2023-12-04T11:22:19;4.67;;;0.40;;
69744;SDS011;57015;50.120;-5.168;2023-12-04T11:24:49;6.47;;;0.77;;
69744;SDS011;57015;50.120;-5.168;2023-12-04T11:27:19;5.72;;;1.13;;
69744;SDS011;57015;50.120;-5.168;2023-12-04T11:29:45;10.68;;;1.10;;
69744;SDS011;57015;50.120;-5.168;2023-12-04T11:32:15;9.63;;;0.80;;
69744;SDS011;57015;50.120;-5.168;2023-12-04T11:34:48;4.10;;;0.80;;
69744;SDS011;57015;50.120;-5.168;2023-12-04T11:37:14;7.30;;;1.73;;
69744;SDS011;57015;50.120;-5.168;2023-12-04T11:39:40;8.00;;;1.20;;
69744;SDS011;57015;50.120;-5.168;2023-12-04T11:42:06;6.22;;;1.00;;
69744;SDS011;57015;50.120;-5.168;2023-12-04T11:44:32;18.40;;;0.80;;
69744;SDS011;57015;50.120;-5.168;2023-12-04T11:47:02;12.25;;;1.05;;
69744;SDS011;57015;50.120;-5.168;2023-12-04T11:49:29;9.88;;;1.00;;
69744;SDS011;57015;50.120;-5.168;2023-12-04T11:51:56;9.07;;;1.00;;
69744;SDS011;57015;50.120;-5.168;2023-12-04T11:54:59;4.50;;;0.90;;
69744;SDS011;57015;50.120;-5.168;2023-12-04T11:57:38;6.28;;;1.00;;
69744;SDS011;57015;50.120;-5.168;2023-12-04T12:00:18;10.32;;;0.95;;
69744;SDS011;57015;50.120;-5.168;2023-12-04T12:05:19;6.97;;;1.23;;
69744;SDS011;57015;50.120;-5.168;2023-12-04T12:07:48;9.35;;;1.33;;
69744;SDS011;57015;50.120;-5.168;2023-12-04T12:10:14;8.98;;;1.85;;
69744;SDS011;57015;50.120;-5.168;2023-12-04T12:12:40;8.13;;;1.20;;
69744;SDS011;57015;50.120;-5.168;2023-12-04T12:15:09;8.83;;;1.80;;
69744;SDS011;57015;50.120;-5.168;2023-12-04T12:17:35;7.97;;;1.23;;
69744;SDS011;57015;50.120;-5.168;2023-12-04T12:20:05;7.82;;;1.83;;
69744;SDS011;57015;50.120;-5.168;2023-12-04T12:22:32;12.13;;;1.30;;
69744;SDS011;57015;50.120;-5.168;2023-12-04T12:25:03;8.68;;;1.52;;
69744;SDS011;57015;50.120;-5.168;2023-12-04T12:27:30;6.72;;;1.90;;
69744;SDS011;57015;50.120;-5.168;2023-12-04T12:29:55;7.63;;;1.35;;
69744;SDS011;57015;50.120;-5.168;2023-12-04T12:32:21;9.53;;;1.13;;
69744;SDS011;57015;50.120;-5.168;2023-12-04T12:34:46;8.27;;;1.37;;
69744;SDS011;57015;50.120;-5.168;2023-12-04T12:37:11;7.70;;;1.30;;
69744;SDS011;57015;50.120;-5.168;2023-12-04T12:39:37;7.77;;;1.10;;
69744;SDS011;57015;50.120;-5.168;2023-12-04T12:42:02;8.20;;;1.60;;
69744;SDS011;57015;50.120;-5.168;2023-12-04T12:44:36;10.18;;;1.50;;
69744;SDS011;57015;50.120;-5.168;2023-12-04T12:47:05;10.38;;;1.50;;
69744;SDS011;57015;50.120;-5.168;2023-12-04T12:49:32;14.02;;;1.30;;
69744;SDS011;57015;50.120;-5.168;2023-12-04T12:51:59;9.00;;;1.50;;
69744;SDS011;57015;50.120;-5.168;2023-12-04T12:54:25;10.43;;;1.00;;
69744;SDS011;57015;50.120;-5.168;2023-12-04T12:56:50;8.00;;;1.00;;
69744;SDS011;57015;50.120;-5.168;2023-12-04T12:59:16;6.82;;;0.88;;
69744;SDS011;57015;50.120;-5.168;2023-12-04T13:01:42;13.40;;;1.55;;
69744;SDS011;57015;50.120;-5.168;2023-12-04T13:04:08;11.47;;;1.20;;
69744;SDS011;57015;50.120;-5.168;2023-12-04T13:06:35;6.70;;;1.23;;
69744;SDS011;57015;50.120;-5.168;2023-12-04T13:09:00;7.83;;;1.50;;
69744;SDS011;57015;50.120;-5.168;2023-12-04T13:11:26;11.20;;;2.33;;
69744;SDS011;57015;50.120;-5.168;2023-12-04T13:13:51;7.80;;;1.50;;
69744;SDS011;57015;50.120;-5.168;2023-12-04T13:16:17;6.50;;;0.95;;
69744;SDS011;57015;50.120;-5.168;2023-12-04T13:18:43;5.43;;;0.83;;
69744;SDS011;57015;50.120;-5.168;2023-12-04T13:21:08;14.23;;;1.45;;
69744;SDS011;57015;50.120;-5.168;2023-12-04T13:23:35;8.57;;;1.47;;
69744;SDS011;57015;50.120;-5.168;2023-12-04T13:26:01;11.32;;;1.33;;
69744;SDS011;57015;50.120;-5.168;2023-12-04T13:28:26;8.03;;;1.47;;
69744;SDS011;57015;50.120;-5.168;2023-12-04T13:30:52;7.10;;;1.20;;
69744;SDS011;57015;50.120;-5.168;2023-12-04T13:33:18;10.68;;;2.05;;
69744;SDS011;57015;50.120;-5.168;2023-12-04T13:35:43;9.40;;;1.50;;
69744;SDS011;57015;50.120;-5.168;2023-12-04T13:38:09;13.40;;;1.23;;
69744;SDS011;57015;50.120;-5.168;2023-12-04T13:40:38;10.23;;;1.30;;
69744;SDS011;57015;50.120;-5.168;2023-12-04T13:43:04;8.67;;;1.23;;
69744;SDS011;57015;50.120;-5.168;2023-12-04T13:45:49;8.15;;;1.33;;
69744;SDS011;57015;50.120;-5.168;2023-12-04T13:48:14;6.07;;;1.40;;
69744;SDS011;57015;50.120;-5.168;2023-12-04T13:50:40;11.52;;;2.25;;
69744;SDS011;57015;50.120;-5.168;2023-12-04T13:53:05;4.07;;;1.20;;
69744;SDS011;57015;50.120;-5.168;2023-12-04T13:55:32;8.55;;;1.55;;
69744;SDS011;57015;50.120;-5.168;2023-12-04T13:58:16;10.65;;;1.30;;
69744;SDS011;57015;50.120;-5.168;2023-12-04T14:01:00;8.63;;;1.57;;
69744;SDS011;57015;50.120;-5.168;2023-12-04T14:03:37;7.90;;;1.70;;
69744;SDS011;57015;50.120;-5.168;2023-12-04T14:06:03;11.27;;;1.70;;
69744;SDS011;57015;50.120;-5.168;2023-12-04T14:08:29;16.45;;;2.25;;
69744;SDS011;57015;50.120;-5.168;2023-12-04T14:10:54;8.07;;;1.57;;
69744;SDS011;57015;50.120;-5.168;2023-12-04T14:13:20;11.23;;;1.73;;
69744;SDS011;57015;50.120;-5.168;2023-12-04T14:15:45;13.27;;;2.15;;
69744;SDS011;57015;50.120;-5.168;2023-12-04T14:18:10;10.45;;;1.77;;
69744;SDS011;57015;50.120;-5.168;2023-12-04T14:20:36;8.20;;;2.00;;
69744;SDS011;57015;50.120;-5.168;2023-12-04T14:23:02;6.43;;;1.27;;
69744;SDS011;57015;50.120;-5.168;2023-12-04T14:25:27;9.75;;;1.40;;
69744;SDS011;57015;50.120;-5.168;2023-12-04T14:27:52;8.65;;;1.30;;
69744;SDS011;57015;50.120;-5.168;2023-12-04T14:30:18;9.83;;;1.90;;
69744;SDS011;57015;50.120;-5.168;2023-12-04T14:32:43;13.80;;;1.70;;